createdAt,value
2018-04-30T00:01:08.080Z,16.50
2018-04-30T00:03:34.156Z,16.50
2018-04-30T00:06:00.244Z,16.50
2018-04-30T00:08:26.319Z,16.40
2018-04-30T00:10:53.152Z,16.30
2018-04-30T00:13:19.968Z,16.30
2018-04-30T00:15:46.040Z,16.30
2018-04-30T00:18:12.130Z,16.30
2018-04-30T00:20:38.204Z,16.20
2018-04-30T00:23:19.024Z,16.20
2018-04-30T00:26:09.897Z,16.20
2018-04-30T00:28:42.668Z,16.20
2018-04-30T00:31:36.357Z,16.20
2018-04-30T00:37:15.225Z,16.10
2018-04-30T00:39:46.711Z,16.10
2018-04-30T00:42:22.100Z,16.10
2018-04-30T00:44:54.770Z,16.10
2018-04-30T00:47:39.152Z,16.00
2018-04-30T00:50:05.321Z,16.00
2018-04-30T00:58:54.744Z,15.90
2018-04-30T01:04:40.100Z,15.90
2018-04-30T01:07:12.840Z,15.90
2018-04-30T01:09:47.467Z,15.90
2018-04-30T01:12:32.878Z,15.90
2018-04-30T01:14:58.968Z,16.00
2018-04-30T01:17:25.052Z,16.10
2018-04-30T01:19:51.883Z,16.20
2018-04-30T01:22:17.952Z,16.10
2018-04-30T01:24:44.036Z,16.30
2018-04-30T01:27:10.121Z,16.20
2018-04-30T01:29:36.279Z,16.20
2018-04-30T01:32:02.301Z,16.30
2018-04-30T01:34:28.381Z,16.30
2018-04-30T01:36:54.468Z,16.30
2018-04-30T01:39:20.547Z,16.40
2018-04-30T01:41:46.637Z,16.40
2018-04-30T01:44:13.492Z,16.50
2018-04-30T01:46:39.569Z,16.50
2018-04-30T01:49:05.651Z,16.50
2018-04-30T01:51:31.732Z,16.50
2018-04-30T01:53:57.809Z,16.50
2018-04-30T01:56:23.896Z,16.50
2018-04-30T01:58:50.717Z,16.60
2018-04-30T02:01:16.796Z,16.60
2018-04-30T02:03:49.173Z,16.60
2018-04-30T02:06:15.249Z,16.60
2018-04-30T02:08:41.331Z,16.50
2018-04-30T02:11:07.408Z,16.50
2018-04-30T02:13:34.227Z,16.50
2018-04-30T02:16:00.313Z,16.50
2018-04-30T02:18:26.393Z,16.50
2018-04-30T02:20:52.475Z,16.50
2018-04-30T02:23:18.569Z,16.60
2018-04-30T02:25:45.392Z,16.60
2018-04-30T02:28:11.470Z,16.60
2018-04-30T02:30:37.551Z,16.70
2018-04-30T02:33:04.368Z,16.70
2018-04-30T02:35:30.451Z,16.70
2018-04-30T02:37:56.528Z,16.70
2018-04-30T02:40:22.609Z,16.80
2018-04-30T02:42:48.764Z,16.80
2018-04-30T02:45:14.840Z,16.80
2018-04-30T02:47:40.936Z,16.80
2018-04-30T02:50:07.759Z,16.70
2018-04-30T02:52:33.853Z,16.70
2018-04-30T02:54:59.929Z,16.70
2018-04-30T02:57:26.017Z,16.70
2018-04-30T02:59:52.092Z,16.70
2018-04-30T03:02:18.933Z,16.70
2018-04-30T03:04:45.753Z,16.70
2018-04-30T03:07:11.833Z,16.70
2018-04-30T03:09:37.920Z,16.60
2018-04-30T03:12:04.741Z,16.60
2018-04-30T03:14:30.820Z,16.60
2018-04-30T03:16:56.888Z,16.60
2018-04-30T03:19:22.973Z,16.60
2018-04-30T03:21:49.036Z,16.60
2018-04-30T03:24:15.120Z,16.60
2018-04-30T03:26:41.207Z,16.60
2018-04-30T03:29:07.299Z,16.60
2018-04-30T03:31:33.417Z,16.70
2018-04-30T03:33:59.504Z,16.70
2018-04-30T03:36:26.380Z,16.60
2018-04-30T03:38:52.464Z,16.60
2018-04-30T03:41:19.284Z,16.70
2018-04-30T03:43:45.372Z,16.60
2018-04-30T03:46:11.456Z,16.70
2018-04-30T03:48:38.268Z,16.80
2018-04-30T03:51:04.347Z,16.70
2018-04-30T03:53:30.420Z,16.80
2018-04-30T03:55:56.500Z,16.80
2018-04-30T03:58:22.568Z,16.90
2018-04-30T04:01:07.232Z,16.90
2018-04-30T04:03:52.073Z,16.90
2018-04-30T04:09:27.501Z,16.90
2018-04-30T04:11:54.321Z,17.00
2018-04-30T04:14:20.375Z,16.90
2018-04-30T04:16:46.440Z,16.90
2018-04-30T04:19:12.496Z,17.00
2018-04-30T04:21:38.569Z,17.00
2018-04-30T04:24:04.620Z,17.10
2018-04-30T04:26:30.693Z,17.00
2018-04-30T04:28:57.504Z,17.00
2018-04-30T04:31:23.575Z,17.00
2018-04-30T04:33:49.632Z,17.10
2018-04-30T04:36:15.723Z,17.10
2018-04-30T04:38:41.784Z,17.20
2018-04-30T04:41:07.907Z,17.20
2018-04-30T04:43:34.676Z,17.40
2018-04-30T04:46:00.733Z,17.30
2018-04-30T04:48:26.812Z,17.40
2018-04-30T04:50:52.871Z,17.40
2018-04-30T04:53:19.684Z,17.60
2018-04-30T04:55:45.763Z,17.60
2018-04-30T04:58:11.844Z,17.60
2018-04-30T05:00:37.917Z,17.70
2018-04-30T05:03:03.991Z,17.80
2018-04-30T05:05:30.055Z,17.80
2018-04-30T05:07:56.139Z,17.90
2018-04-30T05:10:22.219Z,18.00
2018-04-30T05:12:48.300Z,18.00
2018-04-30T05:15:14.379Z,18.00
2018-04-30T05:17:40.456Z,18.10
2018-04-30T05:20:06.545Z,18.30
2018-04-30T05:22:32.664Z,18.50
2018-04-30T05:24:58.744Z,18.70
2018-04-30T05:27:25.580Z,19.60
2018-04-30T05:29:52.409Z,20.60
2018-04-30T05:32:18.480Z,20.60
2018-04-30T05:34:44.574Z,21.30
2018-04-30T05:37:11.450Z,22.40
2018-04-30T05:39:37.533Z,22.40
2018-04-30T05:42:03.615Z,22.80
2018-04-30T05:44:29.704Z,23.80
2018-04-30T05:46:56.519Z,26.00
2018-04-30T05:49:22.605Z,25.90
2018-04-30T05:51:48.683Z,26.60
2018-04-30T05:54:15.524Z,27.00
2018-04-30T05:56:42.361Z,26.40
2018-04-30T05:59:08.436Z,26.30
2018-04-30T06:01:34.524Z,25.20
2018-04-30T06:04:00.604Z,24.20
2018-04-30T06:06:26.688Z,23.40
2018-04-30T06:08:53.504Z,23.60
2018-04-30T06:11:19.601Z,23.60
2018-04-30T06:13:45.680Z,24.30
2018-04-30T06:16:12.513Z,26.50
2018-04-30T06:18:38.602Z,26.50
2018-04-30T06:21:04.688Z,27.60
2018-04-30T06:23:30.768Z,28.40
2018-04-30T06:25:56.852Z,28.90
2018-04-30T06:28:22.930Z,28.70
2018-04-30T06:30:49.008Z,29.20
2018-04-30T06:33:15.104Z,29.70
2018-04-30T06:35:41.179Z,30.10
2018-04-30T06:38:07.280Z,30.50
2018-04-30T06:40:33.368Z,30.70
2018-04-30T06:43:00.196Z,31.20
2018-04-30T06:45:26.266Z,31.20
2018-04-30T06:47:52.358Z,31.50
2018-04-30T06:50:19.172Z,31.80
2018-04-30T06:52:45.251Z,31.70
2018-04-30T06:55:11.327Z,31.80
2018-04-30T06:57:37.427Z,31.60
2018-04-30T07:00:03.497Z,31.30
2018-04-30T07:02:33.133Z,30.90
2018-04-30T07:08:17.161Z,31.10
2018-04-30T07:10:43.240Z,31.40
2018-04-30T07:13:09.328Z,31.80
2018-04-30T07:15:36.147Z,32.30
2018-04-30T07:18:02.228Z,32.20
2018-04-30T07:20:28.313Z,32.40
2018-04-30T07:22:54.404Z,32.50
2018-04-30T07:25:20.504Z,32.50
2018-04-30T07:27:46.626Z,32.40
2018-04-30T07:30:13.420Z,32.50
2018-04-30T07:32:39.505Z,32.40
2018-04-30T07:35:05.601Z,32.40
2018-04-30T07:37:32.425Z,32.20
2018-04-30T07:40:20.190Z,32.20
2018-04-30T07:42:46.267Z,32.00
2018-04-30T07:45:12.356Z,31.90
2018-04-30T07:47:38.439Z,32.00
2018-04-30T07:50:04.520Z,32.20
2018-04-30T07:52:30.605Z,32.20
2018-04-30T07:54:57.432Z,32.20
2018-04-30T07:57:24.252Z,31.60
2018-04-30T07:59:51.072Z,30.70
2018-04-30T08:02:17.128Z,30.60
2018-04-30T08:04:43.195Z,29.70
2018-04-30T08:07:09.256Z,29.00
2018-04-30T08:09:35.320Z,28.90
2018-04-30T08:12:02.136Z,29.30
2018-04-30T08:14:28.197Z,29.20
2018-04-30T08:16:55.012Z,29.70
2018-04-30T08:19:21.074Z,29.70
2018-04-30T08:21:47.139Z,29.80
2018-04-30T08:24:13.211Z,29.90
2018-04-30T08:26:40.018Z,29.80
2018-04-30T08:29:06.826Z,30.00
2018-04-30T08:31:32.889Z,29.90
2018-04-30T08:37:06.875Z,30.40
2018-04-30T08:39:32.942Z,30.20
2018-04-30T08:41:59.024Z,29.50
2018-04-30T08:44:25.084Z,28.90
2018-04-30T08:46:51.151Z,28.40
2018-04-30T08:49:17.956Z,28.20
2018-04-30T08:51:44.041Z,28.20
2018-04-30T08:54:10.116Z,28.50
2018-04-30T08:56:36.199Z,28.50
2018-04-30T08:59:02.304Z,28.10
2018-04-30T09:01:28.399Z,27.80
2018-04-30T09:03:54.494Z,27.90
2018-04-30T09:06:20.572Z,27.90
2018-04-30T09:08:47.397Z,27.50
2018-04-30T09:11:13.473Z,27.40
2018-04-30T09:13:39.564Z,27.40
2018-04-30T09:16:06.408Z,28.10
2018-04-30T09:18:33.235Z,27.60
2018-04-30T09:20:59.325Z,27.60
2018-04-30T09:23:25.404Z,27.10
2018-04-30T09:25:52.216Z,26.40
2018-04-30T09:28:19.061Z,26.20
2018-04-30T09:30:45.136Z,26.10
2018-04-30T09:33:11.235Z,26.00
2018-04-30T09:35:38.056Z,25.70
2018-04-30T09:38:04.128Z,25.70
2018-04-30T09:40:30.211Z,25.70
2018-04-30T09:42:56.279Z,25.70
2018-04-30T09:45:22.355Z,25.60
2018-04-30T09:47:48.440Z,25.50
2018-04-30T09:50:14.588Z,25.50
2018-04-30T09:52:40.660Z,25.50
2018-04-30T09:55:07.492Z,25.30
2018-04-30T09:57:34.305Z,25.00
2018-04-30T10:00:00.394Z,25.00
2018-04-30T10:02:26.479Z,24.60
2018-04-30T10:04:52.549Z,24.20
2018-04-30T10:07:18.645Z,23.80
2018-04-30T10:09:44.712Z,23.60
2018-04-30T10:12:10.792Z,23.40
2018-04-30T10:14:37.615Z,22.90
2018-04-30T10:17:03.679Z,22.90
2018-04-30T10:19:29.748Z,22.70
2018-04-30T10:21:55.834Z,22.60
2018-04-30T10:24:21.899Z,22.40
2018-04-30T10:26:47.963Z,22.20
2018-04-30T10:29:14.770Z,22.20
2018-04-30T10:31:40.854Z,22.10
2018-04-30T10:34:06.934Z,22.20
2018-04-30T10:36:32.996Z,22.20
2018-04-30T10:38:59.072Z,22.20
2018-04-30T10:41:25.147Z,22.20
2018-04-30T10:43:51.212Z,22.40
2018-04-30T10:46:17.272Z,22.50
2018-04-30T10:48:44.096Z,23.30
2018-04-30T10:51:10.160Z,23.30
2018-04-30T10:53:36.240Z,23.90
2018-04-30T10:56:02.321Z,24.40
2018-04-30T10:58:28.403Z,24.70
2018-04-30T11:00:54.493Z,24.80
2018-04-30T11:03:20.575Z,24.80
2018-04-30T11:05:47.393Z,25.20
2018-04-30T11:08:13.485Z,25.20
2018-04-30T11:10:39.584Z,25.70
2018-04-30T11:13:05.666Z,26.10
2018-04-30T11:15:31.749Z,25.90
2018-04-30T11:17:57.828Z,25.60
2018-04-30T11:20:23.896Z,25.30
2018-04-30T11:22:49.987Z,25.10
2018-04-30T11:25:16.068Z,25.00
2018-04-30T11:27:42.175Z,24.80
2018-04-30T11:30:08.989Z,24.40
2018-04-30T11:32:35.816Z,24.20
2018-04-30T11:35:02.646Z,24.10
2018-04-30T11:37:28.736Z,24.10
2018-04-30T11:39:54.902Z,24.30
2018-04-30T11:42:20.969Z,24.80
2018-04-30T11:44:47.067Z,25.50
2018-04-30T11:47:13.903Z,26.90
2018-04-30T11:49:39.993Z,26.80
2018-04-30T11:52:06.092Z,26.70
2018-04-30T11:54:32.183Z,26.60
2018-04-30T11:56:59.012Z,26.30
2018-04-30T11:59:25.091Z,26.40
2018-04-30T12:01:51.184Z,27.00
2018-04-30T12:04:18.003Z,28.80
2018-04-30T12:06:44.091Z,28.80
2018-04-30T12:09:10.203Z,29.10
2018-04-30T12:11:36.280Z,29.00
2018-04-30T12:14:02.365Z,28.80
2018-04-30T12:16:28.455Z,28.80
2018-04-30T12:18:55.277Z,29.10
2018-04-30T12:21:22.103Z,29.20
2018-04-30T12:23:48.169Z,29.20
2018-04-30T12:26:14.263Z,29.70
2018-04-30T12:28:46.821Z,30.30
2018-04-30T12:31:12.919Z,30.30
2018-04-30T12:33:39.012Z,30.50
2018-04-30T12:36:05.116Z,30.90
2018-04-30T12:38:31.185Z,31.20
2018-04-30T12:40:57.272Z,31.60
2018-04-30T12:43:23.363Z,31.90
2018-04-30T12:45:49.433Z,32.10
2018-04-30T12:48:16.256Z,31.70
2018-04-30T12:50:42.400Z,31.80
2018-04-30T12:53:08.428Z,31.70
2018-04-30T12:55:35.249Z,31.70
2018-04-30T12:58:01.369Z,31.70
2018-04-30T13:00:27.464Z,32.00
2018-04-30T13:02:53.568Z,32.20
2018-04-30T13:05:19.684Z,32.30
2018-04-30T13:07:45.750Z,32.00
2018-04-30T13:10:11.833Z,31.90
2018-04-30T13:12:38.674Z,32.00
2018-04-30T13:15:05.508Z,31.80
2018-04-30T13:17:32.356Z,32.00
2018-04-30T13:19:58.432Z,32.00
2018-04-30T13:22:24.521Z,32.10
2018-04-30T13:24:51.331Z,31.50
2018-04-30T13:27:17.395Z,31.40
2018-04-30T13:29:44.208Z,30.90
2018-04-30T13:32:10.274Z,30.90
2018-04-30T13:34:36.349Z,30.90
2018-04-30T13:37:02.414Z,31.20
2018-04-30T13:39:28.491Z,31.40
2018-04-30T13:41:54.556Z,30.90
2018-04-30T13:44:21.379Z,29.60
2018-04-30T13:46:47.440Z,29.60
2018-04-30T13:49:13.512Z,29.20
2018-04-30T13:51:39.574Z,28.90
2018-04-30T13:54:06.394Z,28.10
2018-04-30T13:56:32.472Z,28.10
2018-04-30T13:58:58.577Z,27.80
2018-04-30T14:01:24.657Z,27.50
2018-04-30T14:03:50.775Z,27.30
2018-04-30T14:06:16.860Z,26.90
2018-04-30T14:08:42.928Z,26.80
2018-04-30T14:11:09.011Z,26.60
2018-04-30T14:13:35.087Z,27.00
2018-04-30T14:16:01.220Z,27.80
2018-04-30T14:18:27.300Z,28.60
2018-04-30T14:20:53.385Z,29.20
2018-04-30T14:23:19.460Z,29.80
2018-04-30T14:25:45.545Z,30.20
2018-04-30T14:28:12.359Z,30.20
2018-04-30T14:30:38.460Z,30.20
2018-04-30T14:33:04.549Z,30.10
2018-04-30T14:35:30.628Z,29.80
2018-04-30T14:37:56.716Z,29.70
2018-04-30T14:40:22.800Z,29.70
2018-04-30T14:42:48.891Z,29.60
2018-04-30T14:45:14.968Z,29.60
2018-04-30T14:47:41.801Z,29.90
2018-04-30T14:50:08.623Z,29.90
2018-04-30T14:52:34.754Z,29.90
2018-04-30T14:55:00.799Z,30.00
2018-04-30T14:57:27.634Z,29.70
2018-04-30T14:59:53.708Z,29.70
2018-04-30T15:02:19.803Z,29.60
2018-04-30T15:04:46.616Z,29.50
2018-04-30T15:07:13.460Z,29.50
2018-04-30T15:09:39.539Z,29.50
2018-04-30T15:12:05.623Z,29.50
2018-04-30T15:14:31.707Z,29.40
2018-04-30T15:16:57.788Z,29.40
2018-04-30T15:19:24.653Z,29.20
2018-04-30T15:21:51.447Z,29.00
2018-04-30T15:24:17.528Z,29.00
2018-04-30T15:26:43.611Z,28.80
2018-04-30T15:29:10.440Z,28.70
2018-04-30T15:31:36.516Z,28.70
2018-04-30T15:34:02.605Z,28.60
2018-04-30T15:36:29.424Z,28.30
2018-04-30T15:38:55.512Z,28.20
2018-04-30T15:41:21.591Z,28.10
2018-04-30T15:43:47.677Z,28.10
2018-04-30T15:46:13.757Z,28.10
2018-04-30T15:48:40.636Z,27.90
2018-04-30T15:51:06.693Z,27.90
2018-04-30T15:53:32.776Z,27.70
2018-04-30T15:55:58.877Z,27.40
2018-04-30T15:58:25.711Z,27.00
2018-04-30T16:00:52.544Z,26.90
2018-04-30T16:03:18.628Z,26.90
2018-04-30T16:05:44.708Z,26.80
2018-04-30T16:08:11.529Z,26.90
2018-04-30T16:10:37.617Z,26.90
2018-04-30T16:13:03.681Z,26.90
2018-04-30T16:15:29.795Z,26.70
2018-04-30T16:17:55.876Z,26.50
2018-04-30T16:20:21.974Z,26.30
2018-04-30T16:22:48.037Z,26.10
2018-04-30T16:25:14.124Z,26.00
2018-04-30T16:27:40.950Z,25.50
2018-04-30T16:30:07.008Z,25.50
2018-04-30T16:32:33.097Z,25.30
2018-04-30T16:34:59.916Z,25.00
2018-04-30T16:37:26.015Z,25.00
2018-04-30T16:39:52.103Z,24.90
2018-04-30T16:42:18.184Z,24.80
2018-04-30T16:44:44.267Z,24.60
2018-04-30T16:47:11.150Z,24.20
2018-04-30T16:49:37.940Z,24.00
2018-04-30T16:52:04.028Z,24.00
2018-04-30T16:54:30.108Z,23.80
2018-04-30T16:56:56.929Z,23.40
2018-04-30T16:59:22.994Z,23.30
2018-04-30T17:01:49.149Z,23.20
2018-04-30T17:04:15.270Z,23.00
2018-04-30T17:06:41.344Z,22.80
2018-04-30T17:09:08.154Z,22.40
2018-04-30T17:11:34.243Z,22.30
2018-04-30T17:14:00.324Z,22.20
2018-04-30T17:16:26.399Z,22.00
2018-04-30T17:18:52.485Z,21.80
2018-04-30T17:21:18.593Z,21.60
2018-04-30T17:23:44.669Z,21.40
2018-04-30T17:26:10.735Z,21.20
2018-04-30T17:28:36.828Z,21.00
2018-04-30T17:31:02.888Z,20.90
2018-04-30T17:33:28.959Z,20.60
2018-04-30T17:35:55.025Z,20.50
2018-04-30T17:38:21.100Z,20.30
2018-04-30T17:40:47.904Z,20.00
2018-04-30T17:43:13.977Z,20.00
2018-04-30T17:45:40.042Z,19.80
2018-04-30T17:48:06.135Z,19.60
2018-04-30T17:50:32.196Z,19.50
2018-04-30T17:52:58.255Z,19.40
2018-04-30T17:55:24.332Z,19.20
2018-04-30T17:57:50.395Z,19.10
2018-04-30T18:00:16.468Z,18.90
2018-04-30T18:02:42.531Z,18.70
2018-04-30T18:05:08.608Z,18.50
2018-04-30T18:07:34.660Z,18.30
2018-04-30T18:10:00.713Z,18.10
2018-04-30T18:15:59.072Z,17.40
2018-04-30T18:18:25.135Z,17.30
2018-04-30T18:20:51.228Z,17.10
2018-04-30T18:23:17.290Z,16.90
2018-04-30T18:25:43.363Z,16.70
2018-04-30T18:31:15.755Z,16.40
2018-04-30T18:33:41.832Z,16.20
2018-04-30T18:36:07.904Z,16.00
2018-04-30T18:38:33.960Z,15.90
2018-04-30T18:41:00.036Z,15.80
2018-04-30T18:43:26.844Z,15.50
2018-04-30T18:45:52.922Z,15.40
2018-04-30T18:48:18.992Z,15.30
2018-04-30T18:50:45.081Z,15.20
2018-04-30T18:53:11.144Z,15.00
2018-04-30T18:55:37.206Z,14.90
2018-04-30T18:58:04.020Z,14.60
2018-04-30T19:00:30.083Z,14.50
2018-04-30T19:02:56.148Z,14.50
2018-04-30T19:05:22.216Z,14.30
2018-04-30T19:07:49.033Z,14.10
2018-04-30T19:10:15.101Z,14.00
2018-04-30T19:12:41.180Z,14.00
2018-04-30T19:15:07.243Z,13.90
2018-04-30T19:17:34.049Z,13.70
2018-04-30T19:20:00.107Z,13.60
2018-04-30T19:22:26.916Z,13.50
2018-04-30T19:24:52.984Z,13.50
2018-04-30T19:27:19.059Z,13.40
2018-04-30T19:29:45.132Z,13.30
2018-04-30T19:32:11.956Z,13.20
2018-04-30T19:34:38.760Z,13.20
2018-04-30T19:37:04.903Z,13.10
2018-04-30T19:39:30.912Z,13.10
2018-04-30T19:41:56.968Z,13.10
2018-04-30T19:44:23.786Z,13.10
2018-04-30T19:46:49.885Z,13.10
2018-04-30T19:49:16.699Z,13.10
2018-04-30T19:51:43.501Z,13.20
2018-04-30T19:54:09.567Z,13.20
2018-04-30T19:56:36.411Z,13.00
2018-04-30T19:59:03.216Z,12.90
2018-04-30T20:01:29.271Z,12.90
2018-04-30T20:03:56.084Z,12.70
2018-04-30T20:06:22.152Z,12.70
2018-04-30T20:08:48.325Z,12.60
2018-04-30T20:11:14.321Z,12.60
2018-04-30T20:13:40.376Z,12.60
2018-04-30T20:16:06.449Z,12.60
2018-04-30T20:18:32.512Z,12.50
2018-04-30T20:20:58.575Z,12.50
2018-04-30T20:23:24.662Z,12.50
2018-04-30T20:25:50.744Z,12.50
2018-04-30T20:28:17.544Z,12.50
2018-04-30T20:30:43.608Z,12.50
2018-04-30T20:33:10.408Z,12.40
2018-04-30T20:35:36.477Z,12.40
2018-04-30T20:38:03.319Z,12.30
2018-04-30T20:40:29.393Z,12.30
2018-04-30T20:42:55.476Z,12.30
2018-04-30T20:45:22.290Z,12.30
2018-04-30T20:47:48.364Z,12.20
2018-04-30T20:50:14.424Z,12.20
2018-04-30T20:52:40.567Z,12.20
2018-04-30T20:55:07.607Z,12.30
2018-04-30T20:57:40.244Z,12.40
2018-04-30T21:00:06.358Z,12.40
2018-04-30T21:02:33.149Z,12.30
2018-04-30T21:04:59.223Z,12.20
2018-04-30T21:07:25.299Z,12.20
2018-04-30T21:10:20.796Z,12.20
2018-04-30T21:12:47.888Z,12.10
2018-04-30T21:15:13.952Z,12.10
2018-04-30T21:17:40.056Z,12.10
2018-04-30T21:20:08.104Z,12.10
2018-04-30T21:22:34.935Z,12.10
2018-04-30T21:25:15.592Z,12.00
2018-04-30T21:27:41.656Z,12.10
2018-04-30T21:30:08.462Z,12.10
2018-04-30T21:32:34.599Z,12.10
2018-04-30T21:35:00.656Z,12.20
2018-04-30T21:37:43.028Z,12.30
2018-04-30T21:40:12.731Z,12.30
2018-04-30T21:43:04.497Z,12.30
2018-04-30T21:45:35.220Z,12.30
2018-04-30T21:48:17.604Z,12.40
2018-04-30T21:50:51.265Z,12.40
2018-04-30T21:56:23.681Z,12.30
2018-04-30T21:58:49.771Z,12.10
2018-04-30T22:01:15.840Z,12.00
2018-04-30T22:03:41.957Z,11.80
2018-04-30T22:06:08.033Z,11.70
2018-04-30T22:08:34.847Z,11.60
2018-04-30T22:11:01.681Z,11.60
2018-04-30T22:13:27.760Z,11.50
2018-04-30T22:15:53.835Z,11.50
2018-04-30T22:18:19.908Z,11.50
2018-04-30T22:21:10.604Z,11.50
2018-04-30T22:23:36.675Z,11.50
2018-04-30T22:26:02.760Z,11.40
2018-04-30T22:28:39.956Z,11.40
2018-04-30T22:31:06.040Z,11.50
2018-04-30T22:33:32.103Z,11.50
2018-04-30T22:35:58.188Z,11.50
2018-04-30T22:38:32.454Z,11.50
2018-04-30T22:41:01.933Z,11.50
2018-04-30T22:43:28.748Z,11.70
2018-04-30T22:46:08.073Z,11.70
2018-04-30T22:48:34.157Z,11.80
2018-04-30T22:51:00.239Z,12.00
2018-04-30T22:53:26.313Z,12.00
2018-04-30T22:55:52.438Z,12.10
2018-04-30T22:58:18.515Z,12.20
2018-04-30T23:00:44.579Z,12.30
2018-04-30T23:03:10.645Z,12.40
2018-04-30T23:05:36.711Z,12.50
2018-04-30T23:08:03.517Z,12.70
2018-04-30T23:10:29.592Z,12.70
2018-04-30T23:12:55.660Z,12.90
2018-04-30T23:15:21.754Z,13.00
2018-04-30T23:17:47.816Z,13.00
2018-04-30T23:20:13.867Z,13.10
2018-04-30T23:22:40.673Z,13.30
2018-04-30T23:25:06.747Z,13.30
2018-04-30T23:27:33.557Z,13.60
2018-04-30T23:29:59.624Z,13.60
2018-04-30T23:32:25.696Z,13.70
2018-04-30T23:34:51.757Z,13.90
2018-04-30T23:37:17.824Z,14.00
2018-04-30T23:39:43.888Z,14.00
2018-04-30T23:42:09.960Z,14.00
2018-04-30T23:44:36.019Z,14.00
2018-04-30T23:47:02.093Z,14.00
2018-04-30T23:49:28.172Z,14.00
2018-04-30T23:51:54.236Z,14.00
2018-04-30T23:54:21.048Z,14.10
2018-04-30T23:56:47.141Z,14.10
2018-04-30T23:59:13.220Z,14.20
